createdAt,value
2022-12-14T00:01:37.773Z,8.13
2022-12-14T00:04:04.778Z,7.20
2022-12-14T00:06:33.118Z,7.60
2022-12-14T00:09:03.572Z,7.55
2022-12-14T00:11:30.672Z,8.13
2022-12-14T00:14:03.067Z,7.15
2022-12-14T00:16:32.991Z,6.50
2022-12-14T00:19:01.363Z,7.18
2022-12-14T00:21:28.670Z,7.50
2022-12-14T00:23:59.026Z,7.28
2022-12-14T00:26:29.402Z,7.15
2022-12-14T00:28:56.957Z,7.03
2022-12-14T00:31:24.865Z,6.85
2022-12-14T00:33:52.422Z,6.85
2022-12-14T00:36:20.055Z,7.45
2022-12-14T00:38:47.255Z,7.30
2022-12-14T00:41:14.162Z,7.38
2022-12-14T00:43:41.640Z,7.40
2022-12-14T00:46:08.577Z,7.45
2022-12-14T00:48:35.944Z,6.88
2022-12-14T00:51:03.136Z,6.35
2022-12-14T00:53:30.223Z,7.07
2022-12-14T00:55:57.054Z,6.93
2022-12-14T00:58:25.619Z,6.32
2022-12-14T01:01:20.903Z,7.20
2022-12-14T01:03:48.522Z,6.60
2022-12-14T01:06:21.045Z,6.70
2022-12-14T01:08:48.956Z,7.07
2022-12-14T01:11:15.855Z,6.45
2022-12-14T01:13:42.928Z,6.18
2022-12-14T01:16:13.147Z,6.47
2022-12-14T01:18:42.421Z,6.15
2022-12-14T01:21:20.898Z,6.65
2022-12-14T01:23:51.445Z,6.25
2022-12-14T01:26:19.143Z,7.00
2022-12-14T01:28:47.241Z,6.07
2022-12-14T01:31:16.790Z,6.40
2022-12-14T01:33:44.877Z,6.50
2022-12-14T01:36:17.921Z,6.38
2022-12-14T01:38:45.220Z,6.40
2022-12-14T01:41:30.914Z,6.45
2022-12-14T01:44:00.669Z,6.45
2022-12-14T01:46:33.185Z,6.72
2022-12-14T01:49:34.112Z,6.10
2022-12-14T01:52:05.052Z,6.30
2022-12-14T01:54:35.517Z,6.43
2022-12-14T01:57:02.426Z,5.97
2022-12-14T01:59:37.609Z,6.40
2022-12-14T02:02:08.092Z,6.13
2022-12-14T06:55:10.066Z,8.35
2022-12-14T06:57:36.887Z,8.55
2022-12-14T07:00:04.147Z,8.93
2022-12-14T07:02:31.339Z,8.70
2022-12-14T07:04:58.326Z,8.20
2022-12-14T07:07:25.320Z,7.72
2022-12-14T07:09:52.373Z,9.80
2022-12-14T07:12:19.395Z,8.50
2022-12-14T07:14:46.550Z,8.18
2022-12-14T07:17:13.457Z,8.85
2022-12-14T07:19:40.329Z,9.02
2022-12-14T07:22:07.183Z,8.45
2022-12-14T07:24:34.018Z,8.40
2022-12-14T07:27:01.044Z,8.82
2022-12-14T07:29:34.137Z,7.68
2022-12-14T07:32:01.610Z,8.25
2022-12-14T07:34:28.677Z,8.23
2022-12-14T07:36:55.860Z,8.90
2022-12-14T07:39:23.023Z,9.00
2022-12-14T07:41:50.774Z,8.57
2022-12-14T07:44:17.793Z,8.57
2022-12-14T07:46:45.831Z,8.50
2022-12-14T07:49:13.259Z,9.35
2022-12-14T07:51:42.025Z,9.32
2022-12-14T07:54:10.467Z,8.95
2022-12-14T07:56:40.042Z,9.25
2022-12-14T07:59:08.835Z,8.40
2022-12-14T08:01:37.763Z,8.68
2022-12-14T08:04:17.156Z,10.02
2022-12-14T08:06:47.065Z,9.90
2022-12-14T08:09:15.637Z,9.30
2022-12-14T08:11:43.141Z,9.65
2022-12-14T08:14:18.464Z,9.55
2022-12-14T08:16:47.445Z,9.63
2022-12-14T08:19:15.096Z,8.73
2022-12-14T08:21:42.341Z,9.57
2022-12-14T08:24:13.891Z,10.25
2022-12-14T08:26:41.362Z,9.77
2022-12-14T08:29:08.636Z,10.27
2022-12-14T08:31:35.700Z,12.23
2022-12-14T08:34:03.120Z,10.10
2022-12-14T08:36:36.078Z,9.15
2022-12-14T08:53:16.820Z,9.90
2022-12-14T08:55:44.064Z,10.23
2022-12-14T08:58:10.843Z,9.80
2022-12-14T09:00:44.145Z,9.70
2022-12-14T09:03:11.945Z,9.50
2022-12-14T09:05:39.037Z,9.35
2022-12-14T09:08:06.052Z,9.98
2022-12-14T09:10:32.781Z,9.77
2022-12-14T09:13:01.233Z,9.40
2022-12-14T09:15:31.778Z,9.25
2022-12-14T09:17:59.477Z,8.82
2022-12-14T09:20:26.358Z,8.77
2022-12-14T09:22:53.297Z,8.57
2022-12-14T09:25:21.875Z,8.80
2022-12-14T09:27:51.241Z,8.50
2022-12-14T09:30:21.787Z,9.15
2022-12-14T09:32:56.486Z,8.68
2022-12-14T09:35:23.387Z,9.07
2022-12-14T09:37:50.207Z,9.35
2022-12-14T09:40:17.313Z,9.23
2022-12-14T09:43:16.670Z,10.15
2022-12-14T09:46:10.459Z,8.73
2022-12-14T09:48:42.440Z,9.00
2022-12-14T09:51:15.589Z,9.10
2022-12-14T09:54:25.184Z,9.77
2022-12-14T09:56:54.244Z,9.50
2022-12-14T09:59:21.336Z,9.25
2022-12-14T10:05:21.239Z,9.05
2022-12-14T10:08:04.066Z,8.95
2022-12-14T10:10:44.390Z,9.32
2022-12-14T10:13:57.305Z,8.88
2022-12-14T10:16:52.276Z,9.38
2022-12-14T10:19:53.448Z,9.10
2022-12-14T10:22:24.372Z,9.13
2022-12-14T10:25:04.029Z,9.02
2022-12-14T10:27:47.974Z,9.23
2022-12-14T10:30:23.452Z,8.80
2022-12-14T10:32:58.670Z,9.45
2022-12-14T10:35:36.880Z,9.20
2022-12-14T10:38:11.279Z,8.65
2022-12-14T10:40:46.314Z,8.90
2022-12-14T10:44:08.972Z,9.20
2022-12-14T10:47:19.391Z,9.40
2022-12-14T10:49:48.730Z,10.48
2022-12-14T10:52:21.918Z,9.63
2022-12-14T10:54:57.265Z,10.57
2022-12-14T10:57:29.040Z,10.02
2022-12-14T11:00:08.422Z,9.60
2022-12-14T11:02:41.777Z,10.02
2022-12-14T11:05:36.716Z,8.63
2022-12-14T11:08:08.244Z,8.43
2022-12-14T11:10:39.432Z,9.18
2022-12-14T11:13:20.565Z,8.98
2022-12-14T11:15:49.959Z,9.25
2022-12-14T11:18:16.937Z,9.05
2022-12-14T11:20:58.600Z,9.45
2022-12-14T11:23:30.058Z,9.77
2022-12-14T11:26:06.736Z,9.80
2022-12-14T11:28:49.865Z,9.30
2022-12-14T11:31:52.724Z,9.02
2022-12-14T11:34:22.569Z,8.75
2022-12-14T11:36:50.056Z,9.35
2022-12-14T11:39:25.012Z,9.10
2022-12-14T11:42:01.397Z,9.20
2022-12-14T11:44:33.140Z,8.85
2022-12-14T11:47:00.889Z,9.18
2022-12-14T11:49:39.721Z,8.65
2022-12-14T11:52:09.461Z,8.98
2022-12-14T11:54:52.721Z,9.10
2022-12-14T11:57:53.068Z,9.20
2022-12-14T12:00:42.548Z,9.85
2022-12-14T12:03:29.642Z,8.70
2022-12-14T12:06:05.690Z,9.20
2022-12-14T12:08:36.202Z,8.98
2022-12-14T12:11:06.303Z,8.82
2022-12-14T12:13:41.668Z,9.07
2022-12-14T12:16:15.965Z,9.13
2022-12-14T12:18:57.871Z,9.68
2022-12-14T12:21:34.344Z,9.10
2022-12-14T12:26:33.018Z,9.35
2022-12-14T12:29:11.152Z,8.85
2022-12-14T12:31:50.162Z,9.60
2022-12-14T12:34:25.965Z,7.82
2022-12-14T12:37:25.205Z,8.48
2022-12-14T12:39:55.775Z,8.68
2022-12-14T12:42:47.779Z,8.85
2022-12-14T12:45:39.467Z,10.57
2022-12-14T12:48:13.199Z,9.32
2022-12-14T12:50:49.707Z,10.15
2022-12-14T13:15:48.391Z,8.98
2022-12-14T13:18:41.244Z,8.25
2022-12-14T13:21:30.242Z,8.10
2022-12-14T13:23:57.366Z,8.23
2022-12-14T13:26:57.626Z,8.02
2022-12-14T13:29:37.908Z,8.50
2022-12-14T13:32:37.806Z,7.88
2022-12-14T13:35:33.184Z,8.23
2022-12-14T13:38:32.973Z,8.38
2022-12-14T13:41:11.032Z,9.75
2022-12-14T13:44:06.264Z,8.85
2022-12-14T13:46:33.510Z,7.65
2022-12-14T13:49:09.451Z,8.40
2022-12-14T13:51:40.980Z,7.93
2022-12-14T13:54:20.744Z,7.85
2022-12-14T13:56:48.526Z,7.75
2022-12-14T13:59:37.715Z,7.53
2022-12-14T14:02:06.583Z,7.95
2022-12-14T14:04:35.770Z,7.72
2022-12-14T14:07:24.444Z,8.35
2022-12-14T14:10:00.133Z,8.27
2022-12-14T14:12:34.374Z,8.30
2022-12-14T14:15:32.068Z,8.25
2022-12-14T14:20:33.944Z,7.20
2022-12-14T14:23:16.123Z,7.60
2022-12-14T14:25:51.591Z,7.90
2022-12-14T14:28:23.145Z,8.20
2022-12-14T14:30:51.871Z,7.25
2022-12-14T14:33:48.372Z,9.60
2022-12-14T14:36:34.900Z,7.93
2022-12-14T14:39:24.414Z,8.10
2022-12-14T14:41:53.909Z,7.97
2022-12-14T14:44:29.004Z,8.80
2022-12-14T14:46:57.250Z,7.80
2022-12-14T14:49:38.616Z,7.82
2022-12-14T14:52:39.442Z,7.57
2022-12-14T14:58:28.594Z,7.88
2022-12-14T15:01:19.934Z,7.78
2022-12-14T15:04:01.391Z,7.65
2022-12-14T15:06:29.901Z,8.43
2022-12-14T15:09:12.711Z,8.63
2022-12-14T15:11:52.739Z,7.38
2022-12-14T15:14:46.678Z,7.82
2022-12-14T15:17:21.503Z,8.30
2022-12-14T15:19:49.156Z,8.15
2022-12-14T15:22:19.640Z,8.05
2022-12-14T15:24:50.542Z,8.32
2022-12-14T15:27:34.827Z,8.57
2022-12-14T15:30:14.084Z,9.45
2022-12-14T15:32:47.629Z,11.98
2022-12-14T15:35:18.907Z,15.65
2022-12-14T15:37:58.048Z,24.33
2022-12-14T15:40:30.281Z,17.17
2022-12-14T15:43:20.012Z,14.18
2022-12-14T15:45:50.620Z,13.80
2022-12-14T15:48:29.980Z,9.48
2022-12-14T15:51:03.916Z,11.48
2022-12-14T15:53:43.860Z,9.75
2022-12-14T15:56:37.762Z,10.25
2022-12-14T15:59:15.641Z,10.00
2022-12-14T16:01:50.022Z,9.23
2022-12-14T16:04:22.898Z,8.65
2022-12-14T16:07:08.667Z,9.43
2022-12-14T16:09:43.492Z,8.45
2022-12-14T16:12:32.181Z,9.45
2022-12-14T16:15:00.897Z,9.52
2022-12-14T16:17:38.072Z,8.85
2022-12-14T16:20:17.010Z,9.15
2022-12-14T16:23:01.514Z,8.35
2022-12-14T16:25:30.613Z,8.57
2022-12-14T16:27:58.061Z,7.95
2022-12-14T16:30:33.143Z,8.38
2022-12-14T16:33:21.121Z,9.50
2022-12-14T16:35:59.684Z,10.35
2022-12-14T16:38:26.835Z,10.80
2022-12-14T16:41:03.944Z,11.85
2022-12-14T16:43:39.977Z,10.45
2022-12-14T16:46:10.893Z,9.73
2022-12-14T16:48:44.612Z,11.15
2022-12-14T16:51:33.049Z,9.73
2022-12-14T16:54:24.281Z,9.43
2022-12-14T16:56:56.791Z,9.45
2022-12-14T16:59:28.338Z,10.70
2022-12-14T17:01:56.413Z,8.95
2022-12-14T17:04:24.612Z,9.20
2022-12-14T17:06:54.582Z,8.98
2022-12-14T17:09:27.567Z,9.63
2022-12-14T17:12:07.013Z,9.50
2022-12-14T17:14:38.051Z,9.35
2022-12-14T17:17:05.602Z,9.35
2022-12-14T17:19:39.588Z,10.00
2022-12-14T17:22:14.258Z,8.93
2022-12-14T17:24:41.319Z,11.63
2022-12-14T17:27:08.143Z,10.68
2022-12-14T17:29:35.108Z,10.80
2022-12-14T17:32:02.962Z,12.80
2022-12-14T17:34:30.663Z,12.77
2022-12-14T17:36:57.704Z,16.67
2022-12-14T17:39:25.027Z,16.35
2022-12-14T17:41:52.313Z,14.68
2022-12-14T17:44:21.621Z,13.13
2022-12-14T17:46:50.017Z,13.30
2022-12-14T17:49:33.861Z,13.35
2022-12-14T17:52:07.422Z,11.90
2022-12-14T17:54:34.316Z,14.77
2022-12-14T17:57:01.243Z,12.27
2022-12-14T17:59:28.351Z,11.85
2022-12-14T18:01:55.325Z,12.52
2022-12-14T18:04:22.213Z,10.60
2022-12-14T18:06:49.002Z,10.82
2022-12-14T18:09:17.560Z,11.77
2022-12-14T18:12:14.009Z,11.32
2022-12-14T18:17:00.910Z,15.05
2022-12-14T18:19:30.265Z,13.02
2022-12-14T18:21:57.160Z,12.13
2022-12-14T18:24:27.496Z,14.40
2022-12-14T18:26:54.770Z,15.68
2022-12-14T18:29:21.550Z,12.65
2022-12-14T18:31:49.559Z,11.00
2022-12-14T18:34:16.679Z,10.65
2022-12-14T18:36:43.789Z,14.02
2022-12-14T18:39:10.663Z,14.57
2022-12-14T18:41:37.460Z,14.82
2022-12-14T18:44:04.446Z,16.83
2022-12-14T18:46:31.567Z,15.52
2022-12-14T18:48:58.641Z,23.88
2022-12-14T18:51:26.906Z,23.13
2022-12-14T18:53:55.099Z,34.95
2022-12-14T18:56:23.671Z,19.77
2022-12-14T18:58:51.809Z,17.15
2022-12-14T19:01:21.582Z,16.10
2022-12-14T19:03:48.848Z,14.07
2022-12-14T19:09:05.495Z,12.80
2022-12-14T19:11:39.036Z,14.02
2022-12-14T19:14:06.082Z,12.82
2022-12-14T19:16:33.067Z,12.20
2022-12-14T19:19:00.803Z,13.02
2022-12-14T19:21:29.435Z,13.05
2022-12-14T19:23:56.690Z,14.30
2022-12-14T19:26:23.874Z,13.70
2022-12-14T19:28:50.691Z,12.63
2022-12-14T19:31:17.665Z,13.57
2022-12-14T19:33:44.679Z,13.48
2022-12-14T19:36:11.793Z,13.98
2022-12-14T19:38:38.770Z,14.75
2022-12-14T19:41:08.642Z,26.88
2022-12-14T19:43:36.077Z,17.08
2022-12-14T19:46:11.303Z,22.58
2022-12-14T19:48:38.499Z,19.35
2022-12-14T19:51:07.660Z,14.75
2022-12-14T19:53:35.425Z,14.93
2022-12-14T19:56:03.380Z,16.50
2022-12-14T19:58:30.494Z,17.55
2022-12-14T20:00:58.109Z,18.85
2022-12-14T20:03:25.133Z,19.27
2022-12-14T20:05:56.522Z,16.17
2022-12-14T20:08:23.459Z,15.88
2022-12-14T20:10:52.700Z,16.23
2022-12-14T20:13:20.862Z,15.25
2022-12-14T20:15:58.232Z,16.40
2022-12-14T20:18:26.312Z,13.70
2022-12-14T20:20:53.499Z,14.98
2022-12-14T20:23:22.046Z,15.07
2022-12-14T20:25:49.328Z,15.40
2022-12-14T20:28:16.237Z,15.07
2022-12-14T20:30:48.030Z,15.25
2022-12-14T20:33:15.536Z,15.10
2022-12-14T20:35:42.507Z,14.20
2022-12-14T20:38:09.478Z,13.95
2022-12-14T20:40:38.908Z,14.10
2022-12-14T20:43:07.279Z,13.77
2022-12-14T20:45:46.726Z,14.23
2022-12-14T20:48:13.999Z,43.95
2022-12-14T20:50:43.145Z,18.75
2022-12-14T20:53:09.985Z,29.98
2022-12-14T20:55:37.198Z,19.30
2022-12-14T20:58:04.082Z,16.67
2022-12-14T21:00:31.107Z,16.50
2022-12-14T21:02:58.249Z,14.63
2022-12-14T21:05:25.472Z,14.57
2022-12-14T21:07:52.314Z,13.55
2022-12-14T21:10:19.364Z,14.32
2022-12-14T21:12:48.779Z,14.00
2022-12-14T21:15:16.202Z,13.82
2022-12-14T21:17:43.129Z,14.00
2022-12-14T21:20:11.462Z,12.93
2022-12-14T21:22:38.873Z,13.65
2022-12-14T21:25:07.170Z,14.65
2022-12-14T21:27:38.361Z,16.08
2022-12-14T21:30:08.317Z,16.20
2022-12-14T21:32:37.405Z,15.32
2022-12-14T21:35:05.166Z,15.10
2022-12-14T21:37:31.992Z,14.30
2022-12-14T21:39:58.958Z,14.43
2022-12-14T21:42:26.636Z,14.23
2022-12-14T21:44:55.806Z,14.55
2022-12-14T21:47:27.980Z,14.98
2022-12-14T21:49:55.577Z,14.90
2022-12-14T21:52:25.015Z,15.18
2022-12-14T21:54:51.878Z,15.23
2022-12-14T21:57:42.977Z,15.15
2022-12-14T22:00:16.903Z,14.15
2022-12-14T22:02:44.205Z,14.05
2022-12-14T22:05:11.349Z,14.13
2022-12-14T22:07:38.173Z,15.38
2022-12-14T22:10:05.384Z,14.98
2022-12-14T22:12:32.168Z,13.57
2022-12-14T22:14:59.082Z,14.75
2022-12-14T22:17:25.903Z,13.98
2022-12-14T22:19:55.185Z,13.80
2022-12-14T22:22:22.919Z,14.57
2022-12-14T22:24:51.361Z,14.52
2022-12-14T22:27:19.004Z,13.68
2022-12-14T22:29:45.932Z,14.18
2022-12-14T22:32:13.535Z,15.32
2022-12-14T22:34:40.653Z,17.33
2022-12-14T22:37:07.551Z,13.82
2022-12-14T22:39:34.408Z,14.63
2022-12-14T22:42:01.277Z,13.80
2022-12-14T22:44:28.283Z,14.52
2022-12-14T22:46:55.125Z,14.55
2022-12-14T22:49:22.170Z,13.60
2022-12-14T22:51:50.416Z,14.57
2022-12-14T22:54:26.081Z,13.57
2022-12-14T22:57:06.792Z,14.48
2022-12-14T22:59:38.879Z,14.27
2022-12-14T23:02:06.048Z,14.65
2022-12-14T23:04:33.193Z,14.43
2022-12-14T23:07:00.124Z,14.00
2022-12-14T23:09:45.850Z,14.30
2022-12-14T23:12:31.273Z,14.38
2022-12-14T23:15:16.967Z,15.13
2022-12-14T23:18:02.577Z,15.27
2022-12-14T23:20:48.181Z,16.17
2022-12-14T23:23:33.789Z,16.88
2022-12-14T23:26:23.955Z,15.48
2022-12-14T23:29:09.481Z,15.30
2022-12-14T23:31:55.061Z,14.55
2022-12-14T23:34:40.377Z,15.45
2022-12-14T23:37:26.618Z,15.05
2022-12-14T23:40:12.273Z,15.10
2022-12-14T23:42:57.635Z,15.65
2022-12-14T23:45:42.995Z,15.02
2022-12-14T23:48:28.699Z,14.23
2022-12-14T23:51:14.047Z,14.60
2022-12-14T23:53:59.509Z,14.15
2022-12-14T23:56:45.124Z,14.63
2022-12-14T23:59:32.643Z,14.95
